Time;durP1;ratioP1;P1;durP2;ratioP2;P2;SDS_P1;SDS_P2;PMS_P1;PMS_P2;Temp;Humidity;BMP_temperature;BMP_pressure;BME280_temperature;BME280_humidity;BME280_pressure;Samples;Min_cycle;Max_cycle;Signal;HPM_P1;HPM_P2
2023/01/29 00:02:22;;;;;;;24.87;16.43;;;;;;;-2.80;100.00;102913.22;5047544;28;20037;-62
2023/01/29 00:04:47;;;;;;;24.73;16.90;;;;;;;-2.80;100.00;102914.16;5049717;28;20042;-62
2023/01/29 00:07:13;;;;;;;23.53;17.07;;;;;;;-2.79;100.00;102903.25;5054767;28;20384;-62
2023/01/29 00:09:39;;;;;;;24.30;15.90;;;;;;;-2.77;100.00;102903.47;5050143;28;20029;-63
2023/01/29 00:12:07;;;;;;;28.43;17.37;;;;;;;-2.78;100.00;102901.63;5057913;28;20081;-62
2023/01/29 00:14:32;;;;;;;26.30;16.40;;;;;;;-2.77;100.00;102903.47;5046479;28;20052;-62
2023/01/29 00:16:58;;;;;;;24.87;16.40;;;;;;;-2.74;100.00;102897.81;5051226;28;20057;-63
2023/01/29 00:19:23;;;;;;;23.73;15.97;;;;;;;-2.73;100.00;102895.47;5046432;28;20032;-63
2023/01/29 00:21:48;;;;;;;23.27;16.27;;;;;;;-2.70;100.00;102895.81;5047409;28;20029;-63
2023/01/29 00:24:14;;;;;;;24.50;15.77;;;;;;;-2.67;100.00;102890.22;5055596;28;20439;-63
2023/01/29 00:26:39;;;;;;;26.33;18.07;;;;;;;-2.64;100.00;102890.56;5048458;28;20047;-62
2023/01/29 00:29:05;;;;;;;26.63;17.07;;;;;;;-2.64;100.00;102879.53;5049441;28;20024;-63
2023/01/29 00:31:30;;;;;;;23.53;17.07;;;;;;;-2.62;100.00;102883.13;5046283;28;20032;-63
2023/01/29 00:33:57;;;;;;;24.57;16.57;;;;;;;-2.60;100.00;102886.78;5046821;28;20175;-62
2023/01/29 00:36:22;;;;;;;22.53;16.33;;;;;;;-2.58;100.00;102885.31;5046769;28;20021;-62
2023/01/29 00:39:01;;;;;;;21.77;15.63;;;;;;;-2.57;100.00;102882.03;5046599;28;20031;-62
2023/01/29 00:46:59;;;;;;;23.53;15.73;;;;;;;-2.50;100.00;102887.13;5046917;28;20539;-62
2023/01/29 00:49:25;;;;;;;23.27;15.77;;;;;;;-2.51;100.00;102872.63;5046491;28;20071;-63
2023/01/29 00:52:23;;;;;;;20.83;14.33;;;;;;;-2.52;100.00;102858.13;5046452;28;20045;-62
2023/01/29 00:54:41;;;;;;;23.05;15.10;;;;;;;-2.52;100.00;102853.06;5057052;28;20077;-62
2023/01/29 00:57:06;;;;;;;23.47;15.63;;;;;;;-2.50;100.00;102854.13;5048290;28;20119;-62
2023/01/29 00:59:32;;;;;;;25.47;17.17;;;;;;;-2.50;100.00;102846.50;5054135;28;20124;-62
2023/01/29 01:04:41;;;;;;;23.90;15.47;;;;;;;-2.46;100.00;102835.97;5053747;28;20036;-62
2023/01/29 01:07:07;;;;;;;24.10;15.53;;;;;;;-2.47;100.00;102833.25;5045869;28;20041;-62
2023/01/29 01:12:19;;;;;;;23.37;15.23;;;;;;;-2.51;100.00;102841.25;5046010;28;20052;-62
2023/01/29 01:14:45;;;;;;;21.80;15.90;;;;;;;-2.53;100.00;102849.59;5051162;28;20040;-62
2023/01/29 01:17:10;;;;;;;23.33;15.40;;;;;;;-2.55;100.00;102851.03;5052551;28;20552;-62
2023/01/29 01:19:36;;;;;;;26.07;16.83;;;;;;;-2.55;100.00;102845.97;5048944;28;20025;-62
2023/01/29 01:22:03;;;;;;;22.87;16.00;;;;;;;-2.55;100.00;102848.50;5050267;28;20461;-62
2023/01/29 01:24:29;;;;;;;23.97;16.23;;;;;;;-2.55;100.00;102845.06;5054850;28;20039;-62
2023/01/29 01:26:54;;;;;;;25.63;17.27;;;;;;;-2.57;100.00;102838.88;5050036;28;20113;-62
2023/01/29 01:29:19;;;;;;;24.83;16.93;;;;;;;-2.56;100.00;102843.25;5049352;28;20053;-62
2023/01/29 01:31:45;;;;;;;24.53;15.67;;;;;;;-2.58;100.00;102849.78;5064741;28;20039;-62
2023/01/29 01:34:10;;;;;;;24.67;15.43;;;;;;;-2.60;100.00;102848.69;5051651;28;20037;-60
2023/01/29 01:36:35;;;;;;;26.03;17.43;;;;;;;-2.62;100.00;102848.50;5050224;28;20105;-61
2023/01/29 01:39:00;;;;;;;25.40;16.60;;;;;;;-2.62;100.00;102847.59;5052730;28;20021;-62
2023/01/29 01:41:26;;;;;;;25.83;17.50;;;;;;;-2.64;100.00;102847.41;5054028;28;20028;-61
2023/01/29 01:44:00;;;;;;;24.87;16.03;;;;;;;-2.66;100.00;102852.31;5049034;28;20074;-61
2023/01/29 01:46:32;;;;;;;24.77;16.17;;;;;;;-2.68;100.00;102852.88;5049444;28;20325;-61
2023/01/29 01:49:09;;;;;;;26.57;17.20;;;;;;;-2.70;100.00;102850.13;5049214;28;20035;-62
2023/01/29 01:51:39;;;;;;;27.80;17.53;;;;;;;-2.72;100.00;102854.16;5049321;28;20053;-61
2023/01/29 01:54:13;;;;;;;25.90;16.73;;;;;;;-2.72;100.00;102841.44;5048833;28;20028;-61
2023/01/29 01:56:44;;;;;;;28.77;18.10;;;;;;;-2.74;100.00;102847.97;5062034;28;20270;-62
2023/01/29 01:59:12;;;;;;;26.65;17.42;;;;;;;-2.74;100.00;102853.06;5049423;28;20070;-61
2023/01/29 02:01:41;;;;;;;25.17;16.47;;;;;;;-2.74;100.00;102853.06;5048848;28;20442;-62
2023/01/29 02:10:04;;;;;;;65.67;37.87;;;;;;;-2.77;100.00;102860.31;5048820;28;20090;-62
2023/01/29 02:12:30;;;;;;;46.37;28.07;;;;;;;-2.78;100.00;102858.47;5049371;28;20032;-62
2023/01/29 02:14:55;;;;;;;29.87;20.17;;;;;;;-2.80;100.00;102855.75;5048516;28;20029;-62
2023/01/29 02:17:21;;;;;;;26.97;17.27;;;;;;;-2.83;100.00;102860.47;5049275;28;20028;-62
2023/01/29 02:19:49;;;;;;;27.50;18.27;;;;;;;-2.83;100.00;102868.09;5051476;28;20028;-62
2023/01/29 02:22:54;;;;;;;27.17;17.37;;;;;;;-2.84;100.00;102865.38;5059556;28;20037;-61
2023/01/29 02:25:56;;;;;;;26.77;17.80;;;;;;;-2.84;100.00;102873.00;5057062;28;20032;-62
2023/01/29 02:28:31;;;;;;;31.07;19.33;;;;;;;-2.85;100.00;102868.63;5048409;28;20377;-61
2023/01/29 02:31:31;;;;;;;29.03;18.93;;;;;;;-2.87;100.00;102870.97;5047124;28;20604;-62
2023/01/29 02:34:10;;;;;;;27.50;18.67;;;;;;;-2.90;100.00;102871.50;5060586;28;20055;-62
2023/01/29 02:37:14;;;;;;;31.57;19.27;;;;;;;-2.87;100.00;102872.59;5048727;28;20116;-62
2023/01/29 02:39:45;;;;;;;28.77;18.80;;;;;;;-2.86;100.00;102879.50;5025762;28;20029;-62
2023/01/29 02:42:17;;;;;;;31.70;20.15;;;;;;;-2.84;100.00;102867.91;5040222;28;20120;-62
2023/01/29 02:44:53;;;;;;;31.77;20.10;;;;;;;-2.84;100.00;102860.31;5048511;28;20095;-62
2023/01/29 02:47:27;;;;;;;32.00;20.33;;;;;;;-2.84;100.00;102860.31;5048331;28;20032;-62
2023/01/29 02:50:08;;;;;;;32.03;20.63;;;;;;;-2.84;100.00;102871.34;5048634;28;20029;-62
2023/01/29 02:52:43;;;;;;;31.90;20.58;;;;;;;-2.82;100.00;102868.97;5048031;28;20091;-62
2023/01/29 02:55:15;;;;;;;33.53;20.20;;;;;;;-2.78;100.00;102855.94;5048066;28;20037;-61
2023/01/29 02:57:43;;;;;;;30.57;20.23;;;;;;;-2.77;100.00;102852.69;5052623;28;20020;-62
2023/01/29 03:00:17;;;;;;;34.27;21.23;;;;;;;-2.75;100.00;102855.41;5054539;28;20036;-62
2023/01/29 03:02:48;;;;;;;26.70;17.87;;;;;;;-2.74;100.00;102853.06;5048083;28;20028;-62
2023/01/29 03:05:26;;;;;;;32.05;20.70;;;;;;;-2.70;100.00;102854.31;5048840;28;20500;-62
2023/01/29 03:07:59;;;;;;;30.57;19.30;;;;;;;-2.68;100.00;102857.97;5059484;28;20024;-62
2023/01/29 03:10:30;;;;;;;32.90;22.00;;;;;;;-2.67;100.00;102845.44;5050063;28;20040;-62
2023/01/29 03:13:04;;;;;;;31.43;20.93;;;;;;;-2.62;100.00;102852.66;5053961;28;20511;-62
2023/01/29 03:15:41;;;;;;;30.87;19.50;;;;;;;-2.60;100.00;102856.31;5054648;28;20028;-62
2023/01/29 03:18:14;;;;;;;29.20;19.50;;;;;;;-2.58;100.00;102849.78;5051097;28;20032;-62
2023/01/29 03:20:46;;;;;;;27.40;18.97;;;;;;;-2.58;100.00;102857.41;5047677;28;20702;-62
2023/01/29 03:23:22;;;;;;;32.20;20.07;;;;;;;-2.59;100.00;102848.84;5051478;28;20028;-62
2023/01/29 03:34:22;;;;;;;30.97;20.80;;;;;;;-2.51;100.00;102842.16;5047730;28;20044;-62
2023/01/29 03:36:54;;;;;;;29.47;18.97;;;;;;;-2.51;100.00;102843.78;5047599;28;20025;-63
2023/01/29 03:39:21;;;;;;;30.60;19.67;;;;;;;-2.48;100.00;102839.09;5046785;28;20263;-62
2023/01/29 03:42:30;;;;;;;29.27;19.17;;;;;;;-2.49;100.00;102838.16;5046981;28;20116;-62
2023/01/29 03:45:10;;;;;;;30.87;19.27;;;;;;;-2.49;100.00;102842.31;5046368;28;20024;-61
2023/01/29 03:47:41;;;;;;;29.37;19.13;;;;;;;-2.47;100.00;102848.50;5047426;28;20051;-63
2023/01/29 03:50:19;;;;;;;30.02;19.23;;;;;;;-2.46;100.00;102835.97;5046853;28;20559;-63
2023/01/29 03:52:55;;;;;;;26.03;18.63;;;;;;;-2.43;100.00;102836.34;5058037;28;20056;-62
2023/01/29 03:55:36;;;;;;;26.90;18.83;;;;;;;-2.41;100.00;102818.72;5047880;28;20021;-63
2023/01/29 03:58:22;;;;;;;28.40;20.13;;;;;;;-2.39;100.00;102826.56;5046444;28;20492;-62
2023/01/29 04:01:02;;;;;;;27.17;17.67;;;;;;;-2.40;100.00;102823.09;5046858;28;20831;-63
2023/01/29 04:03:38;;;;;;;28.33;19.50;;;;;;;-2.35;100.00;102828.69;5059409;28;20496;-62
2023/01/29 04:06:20;;;;;;;30.83;20.57;;;;;;;-2.35;100.00;102819.44;5046990;28;20358;-62
2023/01/29 04:08:55;;;;;;;;;;;;;;;-2.31;100.00;102811.47;5047596;28;20095;-62
2023/01/29 04:11:22;;;;;;;28.10;18.27;;;;;;;-2.28;100.00;102810.91;5046974;28;19951;-62
2023/01/29 04:13:48;;;;;;;27.53;17.90;;;;;;;-2.26;100.00;102806.91;5046253;28;20024;-63
2023/01/29 04:16:20;;;;;;;27.50;18.53;;;;;;;-2.24;100.00;102813.09;5047600;28;20025;-62
2023/01/29 04:18:49;;;;;;;27.87;19.73;;;;;;;-2.22;100.00;102806.56;5046904;28;20068;-63
2023/01/29 04:21:15;;;;;;;27.83;17.90;;;;;;;-2.17;100.00;102802.91;5047911;28;20037;-62
2023/01/29 04:23:40;;;;;;;31.27;20.57;;;;;;;-2.13;100.00;102801.63;5054359;28;20546;-62
2023/01/29 04:26:31;;;;;;;29.27;19.50;;;;;;;-2.11;100.00;102801.78;5051022;28;20025;-62
2023/01/29 04:29:27;;;;;;;30.27;20.50;;;;;;;-2.08;100.00;102802.13;5046697;28;20473;-62
2023/01/29 04:32:12;;;;;;;30.20;19.07;;;;;;;-2.04;100.00;102804.31;5047437;28;20029;-62
2023/01/29 04:35:03;;;;;;;27.97;19.40;;;;;;;-2.01;100.00;102797.03;5046436;28;20104;-62
2023/01/29 04:37:46;;;;;;;30.67;19.88;;;;;;;-1.99;100.00;102790.50;5046327;28;20374;-62
2023/01/29 04:40:29;;;;;;;29.07;19.30;;;;;;;-1.97;100.00;102794.13;5046302;28;20028;-62
2023/01/29 04:43:05;;;;;;;31.50;19.97;;;;;;;-1.94;100.00;102797.00;5047144;28;20041;-62
2023/01/29 04:45:43;;;;;;;31.03;20.70;;;;;;;-1.94;100.00;102784.31;5046560;28;20321;-62
2023/01/29 04:48:36;;;;;;;30.23;20.40;;;;;;;-1.92;100.00;102776.84;5047204;28;20036;-61
2023/01/29 04:51:11;;;;;;;31.43;21.20;;;;;;;-1.88;100.00;102773.94;5046822;28;20056;-62
2023/01/29 04:53:45;;;;;;;30.50;20.37;;;;;;;-1.83;100.00;102771.91;5046433;28;20033;-61
2023/01/29 04:56:34;;;;;;;29.27;19.47;;;;;;;-1.79;100.00;102770.63;5049266;28;20496;-61
2023/01/29 04:59:08;;;;;;;31.97;21.40;;;;;;;-1.79;100.00;102758.81;5050007;28;20413;-62
2023/01/29 05:01:36;;;;;;;29.50;20.13;;;;;;;-1.76;100.00;102753.19;5063502;28;20028;-62
2023/01/29 05:04:06;;;;;;;32.70;21.90;;;;;;;-1.75;100.00;102745.72;5050521;28;20385;-62
2023/01/29 05:06:32;;;;;;;32.87;22.33;;;;;;;-1.68;100.00;102747.31;5050265;28;20037;-62
2023/01/29 05:08:59;;;;;;;32.30;21.27;;;;;;;-1.67;100.00;102754.19;5050387;28;20028;-61
2023/01/29 05:11:25;;;;;;;32.33;21.17;;;;;;;-1.66;100.00;102747.50;5050111;28;20069;-62
2023/01/29 05:13:50;;;;;;;29.77;19.67;;;;;;;-1.62;100.00;102742.91;5050281;28;20176;-61
2023/01/29 05:16:21;;;;;;;31.47;21.40;;;;;;;-1.60;100.00;102755.81;5053337;28;20108;-61
2023/01/29 05:18:47;;;;;;;30.70;20.20;;;;;;;-1.61;100.00;102751.44;5053227;28;20341;-62
2023/01/29 05:21:12;;;;;;;34.37;21.87;;;;;;;-1.61;100.00;102756.53;5048825;28;20074;-61
2023/01/29 05:23:37;;;;;;;31.83;22.10;;;;;;;-1.57;100.00;102740.91;5056421;28;20404;-61
2023/01/29 05:26:03;;;;;;;33.70;23.13;;;;;;;-1.54;100.00;102745.41;5053718;28;20029;-61
2023/01/29 05:28:29;;;;;;;31.47;21.03;;;;;;;-1.57;100.00;102730.72;5049758;28;20028;-61
2023/01/29 05:30:55;;;;;;;33.30;20.80;;;;;;;-1.56;100.00;102732.53;5050095;28;20094;-62
2023/01/29 05:33:25;;;;;;;31.87;21.50;;;;;;;-1.55;100.00;102729.25;5048825;28;20271;-62
2023/01/29 05:35:51;;;;;;;34.07;21.10;;;;;;;-1.55;100.00;102724.19;5049493;28;20017;-62
2023/01/29 05:38:17;;;;;;;34.03;22.23;;;;;;;-1.53;100.00;102722.69;5049784;28;20427;-62
2023/01/29 05:40:43;;;;;;;35.20;22.07;;;;;;;-1.52;100.00;102729.59;5062656;28;20021;-62
2023/01/29 05:43:15;;;;;;;32.17;21.97;;;;;;;-1.50;100.00;102732.31;5049709;28;20400;-62
2023/01/29 05:45:40;;;;;;;32.60;22.13;;;;;;;-1.49;100.00;102735.03;5049484;28;20033;-62
2023/01/29 05:48:06;;;;;;;35.70;22.87;;;;;;;-1.49;100.00;102735.03;5049871;28;20029;-63
2023/01/29 05:50:31;;;;;;;34.57;23.77;;;;;;;-1.46;100.00;102740.44;5062136;28;20033;-63
2023/01/29 05:53:00;;;;;;;33.77;23.17;;;;;;;-1.43;100.00;102741.53;5049377;28;20079;-63
2023/01/29 05:55:28;;;;;;;34.37;22.97;;;;;;;-1.41;100.00;102734.97;5049460;28;20037;-63
2023/01/29 05:57:53;;;;;;;32.17;22.00;;;;;;;-1.38;100.00;102732.75;5049852;28;20025;-63
2023/01/29 06:00:19;;;;;;;37.23;24.20;;;;;;;-1.38;100.00;102733.66;5049205;28;20070;-63
2023/01/29 06:02:45;;;;;;;37.93;23.80;;;;;;;-1.39;100.00;102741.13;5048914;28;20056;-63
2023/01/29 06:05:10;;;;;;;33.70;22.83;;;;;;;-1.38;100.00;102745.47;5055272;28;20067;-63
2023/01/29 06:07:35;;;;;;;36.90;24.57;;;;;;;-1.37;100.00;102749.84;5054131;28;20028;-63
2023/01/29 06:10:01;;;;;;;33.47;23.60;;;;;;;-1.37;100.00;102754.94;5052920;28;20025;-63
2023/01/29 06:12:27;;;;;;;37.40;24.03;;;;;;;-1.35;100.00;102761.13;5051006;28;20025;-62
2023/01/29 06:14:52;;;;;;;36.13;24.40;;;;;;;-1.34;100.00;102760.38;5050907;28;20374;-62
2023/01/29 06:17:17;;;;;;;37.20;23.80;;;;;;;-1.33;100.00;102769.78;5048686;28;20465;-63
2023/01/29 06:19:43;;;;;;;34.57;24.40;;;;;;;-1.33;100.00;102767.25;5047372;28;20016;-63
2023/01/29 06:22:09;;;;;;;32.87;24.13;;;;;;;-1.32;100.00;102779.25;5047589;28;20048;-63
2023/01/29 06:24:34;;;;;;;35.23;25.13;;;;;;;-1.30;100.00;102776.88;5054648;28;20029;-63
2023/01/29 06:26:59;;;;;;;35.37;24.33;;;;;;;-1.30;100.00;102777.78;5051405;28;20021;-63
2023/01/29 06:29:25;;;;;;;39.10;25.70;;;;;;;-1.25;100.00;102776.66;5047401;28;20063;-63
2023/01/29 06:31:50;;;;;;;38.23;25.53;;;;;;;-1.23;100.00;102759.00;5056468;28;20025;-63
2023/01/29 06:34:16;;;;;;;34.47;24.03;;;;;;;-1.22;100.00;102750.63;5052821;28;20033;-63
2023/01/29 06:36:41;;;;;;;35.73;25.53;;;;;;;-1.22;100.00;102728.66;5047955;28;20495;-63
2023/01/29 06:39:06;;;;;;;36.70;25.40;;;;;;;-1.19;100.00;102728.09;5046633;28;20021;-63
2023/01/29 06:41:33;;;;;;;35.23;23.07;;;;;;;-1.16;100.00;102719.88;5050210;28;20461;-63
2023/01/29 06:43:58;;;;;;;33.70;23.27;;;;;;;-1.14;100.00;102718.41;5046634;28;20491;-62
2023/01/29 06:46:23;;;;;;;36.90;25.60;;;;;;;-1.11;100.00;102731.47;5046681;28;20029;-63
2023/01/29 06:48:49;;;;;;;34.30;24.40;;;;;;;-1.13;100.00;102735.47;5048091;28;20021;-63
2023/01/29 06:51:14;;;;;;;32.20;24.00;;;;;;;-1.16;100.00;102730.97;5052447;28;20064;-63
2023/01/29 06:53:39;;;;;;;36.23;24.33;;;;;;;-1.14;100.00;102733.69;5048508;28;20017;-62
2023/01/29 06:56:06;;;;;;;35.90;24.33;;;;;;;-1.13;100.00;102727.84;5050804;28;20077;-63
2023/01/29 06:58:31;;;;;;;34.93;24.43;;;;;;;-1.12;100.00;102716.94;5049896;28;20419;-63
2023/01/29 07:01:07;;;;;;;35.80;25.03;;;;;;;-1.09;100.00;102717.28;5049468;28;20025;-63
2023/01/29 07:03:33;;;;;;;35.73;23.30;;;;;;;-1.07;100.00;102718.34;5048762;28;20437;-63
2023/01/29 07:05:58;;;;;;;36.17;24.07;;;;;;;-1.08;100.00;102719.09;5047060;28;20031;-63
2023/01/29 07:08:23;;;;;;;34.60;23.93;;;;;;;-1.05;100.00;102721.97;5048286;28;20565;-63
2023/01/29 07:10:49;;;;;;;36.37;24.27;;;;;;;-1.05;100.00;102721.97;5058984;28;20028;-62
2023/01/29 07:13:15;;;;;;;34.37;24.17;;;;;;;-1.02;100.00;102717.22;5052452;28;20025;-63
2023/01/29 07:15:40;;;;;;;35.53;23.63;;;;;;;-1.00;100.00;102708.09;5054832;28;20020;-63
2023/01/29 07:18:11;;;;;;;33.70;25.13;;;;;;;-0.98;100.00;102721.00;5053963;28;20017;-63
2023/01/29 07:20:37;;;;;;;34.40;24.35;;;;;;;-0.98;100.00;102731.19;5051449;28;20027;-62
2023/01/29 07:23:02;;;;;;;37.20;23.90;;;;;;;-0.98;100.00;102727.00;5050602;28;20029;-63
2023/01/29 07:25:29;;;;;;;35.50;25.37;;;;;;;-0.97;100.00;102730.44;5048973;28;20082;-63
2023/01/29 07:27:54;;;;;;;32.80;23.97;;;;;;;-0.98;100.00;102732.09;5052308;28;20040;-62
2023/01/29 07:30:20;;;;;;;40.17;25.03;;;;;;;-0.95;100.00;102723.88;5048560;28;20491;-63
2023/01/29 07:32:45;;;;;;;35.53;25.10;;;;;;;-0.94;100.00;102733.34;5047742;28;20035;-62
2023/01/29 07:35:11;;;;;;;40.23;25.80;;;;;;;-0.95;100.00;102733.16;5046863;28;20027;-63
2023/01/29 07:37:36;;;;;;;35.23;25.37;;;;;;;-0.95;100.00;102723.88;5046408;28;20111;-63
2023/01/29 07:40:03;;;;;;;36.70;25.13;;;;;;;-0.98;100.00;102716.81;5051911;28;20021;-63
2023/01/29 07:42:29;;;;;;;36.10;24.43;;;;;;;-0.95;100.00;102715.34;5046856;28;20089;-63
2023/01/29 07:44:54;;;;;;;37.83;25.37;;;;;;;-0.97;100.00;102704.97;5046658;28;20041;-63
2023/01/29 07:47:19;;;;;;;33.20;23.77;;;;;;;-0.96;100.00;102704.25;5046881;28;20499;-63
2023/01/29 07:49:45;;;;;;;36.80;25.27;;;;;;;-0.95;100.00;102720.44;5047035;28;20021;-63
2023/01/29 07:52:11;;;;;;;33.27;24.17;;;;;;;-0.97;100.00;102717.69;5048979;28;20067;-63
2023/01/29 07:54:36;;;;;;;36.97;24.00;;;;;;;-0.98;100.00;102727.00;5047780;28;20477;-63
2023/01/29 07:57:01;;;;;;;32.87;24.00;;;;;;;-0.98;100.00;102736.25;5047785;28;20041;-63
2023/01/29 07:59:27;;;;;;;31.10;23.10;;;;;;;-0.99;100.00;102727.72;5048299;28;20479;-64
2023/01/29 08:01:52;;;;;;;35.70;24.50;;;;;;;-0.99;100.00;102715.00;5050268;28;20029;-63
2023/01/29 08:04:17;;;;;;;36.00;24.30;;;;;;;-1.00;100.00;102713.19;5046943;28;20473;-63
2023/01/29 08:06:43;;;;;;;33.80;23.43;;;;;;;-0.98;100.00;102715.91;5055246;28;20032;-63
2023/01/29 08:09:09;;;;;;;35.37;25.63;;;;;;;-0.95;100.00;102717.91;5046443;28;20036;-63
2023/01/29 08:11:34;;;;;;;33.63;23.50;;;;;;;-0.98;100.00;102709.19;5050234;28;20436;-63
2023/01/29 08:13:59;;;;;;;32.63;23.87;;;;;;;-0.97;100.00;102700.78;5057765;28;20031;-63
2023/01/29 08:16:25;;;;;;;35.87;24.20;;;;;;;-0.94;100.00;102696.78;5050888;28;20028;-63
2023/01/29 08:18:50;;;;;;;36.00;24.10;;;;;;;-0.93;100.00;102714.75;5048407;28;20103;-62
2023/01/29 08:21:15;;;;;;;35.23;23.93;;;;;;;-0.92;100.00;102715.66;5052332;28;20033;-63
2023/01/29 08:23:41;;;;;;;32.70;22.43;;;;;;;-0.90;100.00;102711.66;5055588;28;20481;-63
2023/01/29 08:26:06;;;;;;;33.73;23.00;;;;;;;-0.90;100.00;102709.13;5051889;28;20109;-63
2023/01/29 08:28:32;;;;;;;32.07;22.97;;;;;;;-0.89;100.00;102710.91;5051642;28;20037;-63
2023/01/29 08:30:57;;;;;;;32.07;22.30;;;;;;;-0.88;100.00;102705.97;5048660;28;20083;-63
2023/01/29 08:33:23;;;;;;;31.03;21.97;;;;;;;-0.85;100.00;102693.56;5057143;28;20029;-63
2023/01/29 08:35:50;;;;;;;31.90;23.20;;;;;;;-0.82;100.00;102698.09;5050803;28;20043;-64
2023/01/29 08:38:16;;;;;;;36.37;25.53;;;;;;;-0.82;100.00;102693.00;5062201;28;20036;-62
2023/01/29 08:40:42;;;;;;;33.47;23.80;;;;;;;-0.80;100.00;102686.44;5052496;28;20059;-62
2023/01/29 08:43:09;;;;;;;31.13;21.50;;;;;;;-0.75;100.00;102687.84;5050753;28;20520;-62
2023/01/29 08:45:38;;;;;;;30.57;22.40;;;;;;;-0.74;100.00;102676.91;5054248;28;20077;-62
2023/01/29 08:48:03;;;;;;;32.13;23.30;;;;;;;-0.71;100.00;102670.34;5050208;28;20107;-62
2023/01/29 08:50:30;;;;;;;31.17;22.27;;;;;;;-0.68;100.00;102673.22;5053913;28;20125;-62
2023/01/29 08:52:58;;;;;;;34.33;22.10;;;;;;;-0.69;100.00;102668.88;5049277;28;20128;-63
2023/01/29 08:55:23;;;;;;;33.43;23.13;;;;;;;-0.69;100.00;102677.44;5052821;28;20030;-63
2023/01/29 08:57:48;;;;;;;30.40;22.83;;;;;;;-0.68;100.00;102680.84;5049898;28;20021;-63
2023/01/29 09:00:14;;;;;;;29.23;21.80;;;;;;;-0.65;100.00;102691.41;5049217;28;20087;-63
2023/01/29 09:02:39;;;;;;;31.37;21.43;;;;;;;-0.64;100.00;102683.00;5049818;28;20029;-63
2023/01/29 09:05:06;;;;;;;29.90;22.23;;;;;;;-0.63;100.00;102680.63;5049636;28;20036;-63
2023/01/29 09:07:32;;;;;;;28.23;21.47;;;;;;;-0.59;100.00;102676.75;5049771;28;20021;-63
2023/01/29 09:09:57;;;;;;;29.77;21.27;;;;;;;-0.56;100.00;102678.75;5056674;28;20074;-63
2023/01/29 09:12:22;;;;;;;27.67;20.43;;;;;;;-0.51;100.00;102670.84;5055083;28;20027;-63
2023/01/29 09:14:48;;;;;;;30.00;21.60;;;;;;;-0.51;100.00;102673.41;5054736;28;20059;-62
2023/01/29 09:17:13;;;;;;;27.63;19.67;;;;;;;-0.46;100.00;102667.88;5049759;28;20021;-63
2023/01/29 09:19:38;;;;;;;26.63;18.87;;;;;;;-0.44;100.00;102671.50;5060163;28;20104;-62
2023/01/29 09:22:03;;;;;;;28.07;19.53;;;;;;;-0.42;100.00;102664.91;5054267;28;20470;-62
2023/01/29 09:24:29;;;;;;;29.53;21.20;;;;;;;-0.43;100.00;102664.00;5049844;28;20020;-63
2023/01/29 09:26:54;;;;;;;26.13;20.27;;;;;;;-0.42;100.00;102662.38;5048781;28;20487;-63
2023/01/29 09:29:19;;;;;;;26.67;19.67;;;;;;;-0.40;100.00;102663.44;5055313;28;20484;-62
2023/01/29 09:31:45;;;;;;;28.10;19.07;;;;;;;-0.39;100.00;102661.06;5049178;28;20501;-63
2023/01/29 09:34:10;;;;;;;27.03;20.10;;;;;;;-0.39;100.00;102653.41;5049040;28;20028;-62
2023/01/29 09:36:35;;;;;;;27.13;19.37;;;;;;;-0.35;100.00;102664.84;5048994;28;20090;-63
2023/01/29 09:39:01;;;;;;;27.17;19.93;;;;;;;-0.35;100.00;102664.84;5049072;28;20021;-63
2023/01/29 09:41:35;;;;;;;26.73;19.23;;;;;;;-0.31;100.00;102659.31;5048393;28;20091;-62
2023/01/29 09:44:03;;;;;;;28.10;19.60;;;;;;;-0.28;100.00;102662.19;5057646;28;20365;-62
2023/01/29 09:46:42;;;;;;;27.57;20.47;;;;;;;-0.28;100.00;102667.28;5054825;28;20023;-62
2023/01/29 09:49:10;;;;;;;29.43;19.70;;;;;;;-0.27;100.00;102658.88;5048705;28;20033;-62
2023/01/29 09:51:42;;;;;;;29.13;19.13;;;;;;;-0.23;100.00;102667.75;5048675;28;20056;-62
2023/01/29 09:54:36;;;;;;;26.83;18.93;;;;;;;-0.20;100.00;102667.19;5057538;28;20036;-62
2023/01/29 09:57:01;;;;;;;24.67;18.87;;;;;;;-0.16;100.00;102648.91;5046486;28;20670;-62
2023/01/29 09:59:29;;;;;;;28.17;18.93;;;;;;;-0.13;100.00;102659.44;5048902;28;20024;-62
2023/01/29 10:02:26;;;;;;;24.40;17.70;;;;;;;-0.10;100.00;102661.41;5049676;28;20106;-62
2023/01/29 10:05:09;;;;;;;25.03;17.97;;;;;;;-0.09;100.00;102656.47;5048820;28;20016;-62
2023/01/29 10:07:56;;;;;;;26.57;18.83;;;;;;;-0.04;100.00;102657.88;5048145;28;20468;-63
2023/01/29 10:10:31;;;;;;;27.07;18.87;;;;;;;-0.02;100.00;102658.91;5056174;28;20041;-63
2023/01/29 10:12:56;;;;;;;25.20;17.23;;;;;;;0.01;100.00;102667.63;5049019;28;20143;-63
2023/01/29 10:15:46;;;;;;;24.73;17.97;;;;;;;0.04;100.00;102673.03;5049336;28;20147;-63
2023/01/29 10:18:46;;;;;;;25.70;18.30;;;;;;;0.07;100.00;102675.94;5050169;28;20044;-63
2023/01/29 10:21:40;;;;;;;24.50;18.40;;;;;;;0.08;100.00;102668.44;5053671;28;20025;-63
2023/01/29 10:24:13;;;;;;;26.67;18.90;;;;;;;0.13;100.00;102668.91;5057933;28;20033;-63
2023/01/29 10:26:39;;;;;;;24.20;17.67;;;;;;;0.12;100.00;102662.00;5049319;28;20066;-63
2023/01/29 10:29:06;;;;;;;24.57;17.70;;;;;;;0.15;100.00;102662.31;5053499;28;20033;-63
2023/01/29 10:31:38;;;;;;;22.47;17.40;;;;;;;0.16;100.00;102659.06;5050199;28;20477;-63
2023/01/29 10:34:26;;;;;;;24.00;18.07;;;;;;;0.18;100.00;102662.63;5051802;28;20032;-63
2023/01/29 10:36:53;;;;;;;25.13;18.60;;;;;;;0.20;100.00;102656.06;5050450;28;20024;-63
2023/01/29 10:39:21;;;;;;;24.13;17.90;;;;;;;0.21;100.00;102662.06;5049685;28;20013;-63
2023/01/29 10:42:00;;;;;;;24.77;18.00;;;;;;;0.22;100.00;102659.66;5050900;28;20591;-63
2023/01/29 10:44:41;;;;;;;25.30;18.17;;;;;;;0.26;100.00;102660.88;5049625;28;20491;-62
2023/01/29 10:47:28;;;;;;;24.83;17.92;;;;;;;0.28;100.00;102655.94;5051848;28;20481;-62
2023/01/29 10:50:12;;;;;;;25.00;18.23;;;;;;;0.26;100.00;102649.78;5048326;28;20028;-62
2023/01/29 10:52:56;;;;;;;24.60;18.10;;;;;;;0.28;100.00;102648.28;5050907;28;20130;-62
2023/01/29 10:55:45;;;;;;;23.90;17.30;;;;;;;0.29;100.00;102643.34;5049405;28;20064;-63
2023/01/29 10:58:36;;;;;;;25.13;17.53;;;;;;;0.32;100.00;102652.97;5047943;28;20464;-63
2023/01/29 11:01:02;;;;;;;23.02;17.45;;;;;;;0.35;100.00;102640.53;5051491;28;20036;-63
2023/01/29 11:03:32;;;;;;;24.77;18.60;;;;;;;0.39;100.00;102635.00;5047034;28;20029;-63
2023/01/29 11:06:15;;;;;;;24.57;17.20;;;;;;;0.39;100.00;102629.91;5051225;28;20086;-63
2023/01/29 11:09:07;;;;;;;23.40;17.70;;;;;;;0.43;100.00;102628.56;5049570;28;20297;-63
2023/01/29 11:11:56;;;;;;;21.97;16.77;;;;;;;0.47;100.00;102612.81;5052743;28;20032;-63
2023/01/29 11:14:26;;;;;;;24.40;18.37;;;;;;;0.49;100.00;102607.88;5048067;28;20465;-63
2023/01/29 11:16:51;;;;;;;26.87;18.10;;;;;;;0.51;100.00;102601.25;5048322;28;20469;-62
2023/01/29 11:19:20;;;;;;;26.07;18.63;;;;;;;0.55;100.00;102601.75;5047166;28;20036;-63
2023/01/29 11:21:56;;;;;;;25.00;17.97;;;;;;;0.56;100.00;102584.75;5051309;28;20093;-62
2023/01/29 11:24:22;;;;;;;23.47;17.87;;;;;;;0.59;100.00;102590.22;5049956;28;20025;-63
2023/01/29 11:26:49;;;;;;;21.20;15.47;;;;;;;0.61;100.00;102578.50;5048106;28;20479;-63
2023/01/29 11:29:38;;;;;;;20.97;16.00;;;;;;;0.67;100.00;102576.56;5047458;28;20033;-63
2023/01/29 11:32:24;;;;;;;21.73;15.40;;;;;;;0.71;100.00;102576.13;5046983;28;20032;-63
2023/01/29 11:34:56;;;;;;;21.57;15.37;;;;;;;0.73;100.00;102565.16;5053255;28;20028;-63
2023/01/29 11:37:22;;;;;;;21.23;16.27;;;;;;;0.76;100.00;102555.25;5050892;28;20025;-63
2023/01/29 11:39:49;;;;;;;20.77;16.30;;;;;;;0.76;100.00;102552.69;5056629;28;20070;-63
2023/01/29 11:42:20;;;;;;;23.07;16.77;;;;;;;0.81;100.00;102556.63;5048887;28;20667;-63
2023/01/29 11:44:45;;;;;;;18.00;14.27;;;;;;;0.81;100.00;102547.28;5050692;28;20028;-63